Time;durP1;ratioP1;P1;durP2;ratioP2;P2;SDS_P1;SDS_P2;PMS_P1;PMS_P2;Temp;Humidity;BMP_temperature;BMP_pressure;BME280_temperature;BME280_humidity;BME280_pressure;Samples;Min_cycle;Max_cycle;Signal;HPM_P1;HPM_P2
2021/07/14 00:00:49;;;;;;;5.22;3.60;;;30.40;99.90;;;;;;5035398;28;20316;-96
2021/07/14 00:03:21;;;;;;;4.03;2.80;;;30.70;99.90;;;;;;5036189;28;20293;-96
2021/07/14 00:05:55;;;;;;;3.65;3.05;;;31.10;99.90;;;;;;5036632;28;20236;-96
2021/07/14 00:08:27;;;;;;;5.40;3.20;;;31.10;99.90;;;;;;5038340;28;20229;-96
2021/07/14 00:10:58;;;;;;;6.65;3.42;;;31.20;99.90;;;;;;5035782;28;20348;-96
2021/07/14 00:13:33;;;;;;;5.30;3.05;;;31.30;99.90;;;;;;5036636;28;20626;-95
2021/07/14 00:24:32;;;;;;;4.88;3.40;;;30.50;99.90;;;;;;5022526;28;20216;-94
2021/07/14 00:27:06;;;;;;;4.65;3.22;;;30.60;99.90;;;;;;5036393;28;20216;-94
2021/07/14 00:29:47;;;;;;;7.22;3.40;;;30.80;99.90;;;;;;5045067;28;20208;-94
2021/07/14 00:32:18;;;;;;;4.45;3.60;;;30.80;99.90;;;;;;5051627;28;20213;-94
2021/07/14 00:34:50;;;;;;;5.45;3.42;;;30.70;99.90;;;;;;5039598;28;20231;-95
2021/07/14 00:37:22;;;;;;;7.27;3.67;;;30.30;99.90;;;;;;5019244;28;20582;-96
2021/07/14 00:39:56;;;;;;;5.30;3.43;;;30.50;99.90;;;;;;5037620;28;20224;-96
2021/07/14 00:42:30;;;;;;;4.83;3.20;;;30.50;99.90;;;;;;5037002;28;20233;-96
2021/07/14 00:45:03;;;;;;;4.13;2.97;;;30.60;99.90;;;;;;5038522;28;20275;-96
2021/07/14 00:47:35;;;;;;;4.50;3.20;;;30.80;99.90;;;;;;5042805;28;20196;-96
2021/07/14 00:50:08;;;;;;;5.70;3.13;;;30.70;99.90;;;;;;5029419;28;20248;-96
2021/07/14 00:52:40;;;;;;;5.27;2.93;;;30.60;99.90;;;;;;5040329;28;20287;-96
2021/07/14 00:55:13;;;;;;;4.77;3.33;;;30.60;99.90;;;;;;5037894;28;20713;-96
2021/07/14 00:57:44;;;;;;;4.40;3.27;;;30.90;99.90;;;;;;5027248;28;20206;-96
2021/07/14 01:00:17;;;;;;;5.50;3.38;;;31.30;99.90;;;;;;5026992;28;20281;-96
2021/07/14 01:02:48;;;;;;;4.53;3.13;;;31.30;99.90;;;;;;5035024;28;20237;-96
2021/07/14 01:05:24;;;;;;;4.13;3.00;;;31.00;99.90;;;;;;5036195;28;20213;-96
2021/07/14 01:08:04;;;;;;;4.70;3.53;;;31.40;99.90;;;;;;5046981;28;20238;-96
2021/07/14 01:10:40;;;;;;;5.00;2.80;;;31.50;99.70;;;;;;5037119;28;20682;-96
2021/07/14 01:13:16;;;;;;;5.13;3.53;;;32.10;98.40;;;;;;5055786;28;20258;-96
2021/07/14 01:15:53;;;;;;;5.18;3.22;;;32.40;98.40;;;;;;5048999;28;20211;-92
2021/07/14 01:18:32;;;;;;;4.82;3.10;;;32.40;98.70;;;;;;5034137;28;20211;-92
2021/07/14 01:21:06;;;;;;;4.43;3.60;;;32.30;97.40;;;;;;5028194;28;20228;-91
2021/07/14 01:23:51;;;;;;;4.18;3.00;;;32.10;98.00;;;;;;5035168;28;20270;-92
2021/07/14 01:26:40;;;;;;;6.18;3.45;;;32.80;97.40;;;;;;5022047;28;20212;-93
2021/07/14 01:29:16;;;;;;;5.72;3.22;;;32.50;97.20;;;;;;5045501;28;20250;-93
2021/07/14 01:31:50;;;;;;;4.35;3.20;;;32.50;97.60;;;;;;5054255;28;20204;-93
2021/07/14 01:34:23;;;;;;;5.63;3.40;;;32.60;97.00;;;;;;5044080;28;20223;-93
2021/07/14 01:36:59;;;;;;;5.80;3.63;;;32.90;96.90;;;;;;5039205;28;20204;-93
2021/07/14 01:39:32;;;;;;;5.43;3.08;;;32.90;97.80;;;;;;5056010;28;20188;-93
2021/07/14 01:42:06;;;;;;;4.32;2.92;;;33.60;96.60;;;;;;5054654;28;20254;-94
2021/07/14 01:44:40;;;;;;;8.48;3.42;;;33.70;97.50;;;;;;5047910;28;20212;-94
2021/07/14 01:47:11;;;;;;;4.90;3.38;;;33.50;95.60;;;;;;5034281;28;20681;-93
2021/07/14 01:49:45;;;;;;;6.97;3.78;;;33.70;96.10;;;;;;5022552;28;20216;-93
2021/07/14 01:52:20;;;;;;;7.15;3.58;;;34.00;95.20;;;;;;5035779;28;20281;-93
2021/07/14 01:54:52;;;;;;;4.78;3.20;;;33.80;95.50;;;;;;5034284;28;20293;-93
2021/07/14 01:57:25;;;;;;;5.55;3.22;;;34.20;94.70;;;;;;5035141;28;20284;-93
2021/07/14 01:59:59;;;;;;;5.32;3.10;;;34.20;94.70;;;;;;5027660;28;20304;-92
2021/07/14 02:02:33;;;;;;;4.25;3.53;;;34.20;93.80;;;;;;5024272;28;20274;-92
2021/07/14 02:05:07;;;;;;;4.32;2.80;;;34.30;93.30;;;;;;5035330;28;20254;-92
2021/07/14 02:07:39;;;;;;;4.47;3.38;;;33.80;93.70;;;;;;5034798;28;20239;-92
2021/07/14 02:10:11;;;;;;;5.93;3.40;;;33.80;93.50;;;;;;5034365;28;20291;-92
2021/07/14 02:12:45;;;;;;;4.88;3.35;;;33.70;94.10;;;;;;5035174;28;20317;-93
2021/07/14 02:15:22;;;;;;;5.68;3.60;;;33.60;94.10;;;;;;5017899;28;20569;-92
2021/07/14 02:17:57;;;;;;;7.40;3.75;;;33.60;95.00;;;;;;5034577;28;20212;-93
2021/07/14 02:20:29;;;;;;;4.97;3.17;;;33.40;94.30;;;;;;5036147;28;20278;-92
2021/07/14 02:23:01;;;;;;;4.30;3.63;;;33.10;94.90;;;;;;5035046;28;20237;-93
2021/07/14 02:25:33;;;;;;;7.20;3.53;;;33.00;95.30;;;;;;5035616;28;20251;-92
2021/07/14 02:28:04;;;;;;;5.63;3.65;;;32.60;95.70;;;;;;5035625;28;20235;-92
2021/07/14 02:30:37;;;;;;;6.50;3.75;;;32.10;95.80;;;;;;5052648;28;20208;-92
2021/07/14 02:33:09;;;;;;;5.13;3.60;;;31.60;96.60;;;;;;5059222;28;20208;-92
2021/07/14 02:35:43;;;;;;;4.50;3.50;;;31.10;96.90;;;;;;5046465;28;20232;-92
2021/07/14 02:38:19;;;;;;;5.53;3.75;;;30.90;96.80;;;;;;5040739;28;20675;-92
2021/07/14 02:40:57;;;;;;;6.05;4.35;;;30.20;97.50;;;;;;5038100;28;20280;-91
2021/07/14 02:43:30;;;;;;;7.13;4.00;;;29.40;98.80;;;;;;5040271;28;20300;-91
2021/07/14 02:46:13;;;;;;;4.63;3.60;;;28.60;99.60;;;;;;5041256;28;20208;-91
2021/07/14 02:48:46;;;;;;;7.80;3.83;;;28.10;99.90;;;;;;5042283;28;20213;-92
2021/07/14 02:51:20;;;;;;;6.80;4.10;;;27.70;99.90;;;;;;5042679;28;20212;-92
2021/07/14 02:53:55;;;;;;;7.13;4.50;;;27.40;99.90;;;;;;5046450;28;20213;-92
2021/07/14 02:56:31;;;;;;;8.17;3.70;;;27.20;99.90;;;;;;5047782;28;20201;-93
2021/07/14 02:59:08;;;;;;;5.20;3.60;;;26.90;99.90;;;;;;5047411;28;20229;-92
2021/07/14 03:01:44;;;;;;;7.77;4.43;;;26.80;99.90;;;;;;5057433;28;20189;-93
2021/07/14 03:04:16;;;;;;;6.20;3.90;;;26.60;99.90;;;;;;5058495;28;20192;-92
2021/07/14 03:06:48;;;;;;;5.63;3.80;;;26.50;99.90;;;;;;5058597;28;20241;-92
2021/07/14 03:09:31;;;;;;;5.90;3.47;;;26.40;99.90;;;;;;5061182;28;20209;-92
2021/07/14 03:12:03;;;;;;;5.27;3.90;;;26.30;99.90;;;;;;5056952;28;20205;-93
2021/07/14 03:14:35;;;;;;;5.27;4.43;;;26.10;99.90;;;;;;5055588;28;20197;-92
2021/07/14 03:17:10;;;;;;;8.30;5.03;;;26.00;99.90;;;;;;5038101;28;20215;-93
2021/07/14 03:19:42;;;;;;;6.90;4.70;;;25.90;99.90;;;;;;5037320;28;20223;-92
2021/07/14 03:22:14;;;;;;;6.57;4.13;;;25.80;99.90;;;;;;5030593;28;20209;-92
2021/07/14 03:24:46;;;;;;;6.60;4.53;;;25.70;99.90;;;;;;5017410;28;20234;-93
2021/07/14 03:27:18;;;;;;;8.03;4.50;;;25.60;99.90;;;;;;5016435;28;20654;-93
2021/07/14 03:29:52;;;;;;;10.20;5.40;;;25.50;99.90;;;;;;5030611;28;20273;-92
2021/07/14 03:32:26;;;;;;;12.90;4.73;;;25.40;99.90;;;;;;5025775;28;20207;-91
2021/07/14 03:34:57;;;;;;;7.70;4.93;;;25.30;99.90;;;;;;5036487;28;20645;-92
2021/07/14 03:37:29;;;;;;;9.43;5.77;;;25.20;99.90;;;;;;5036581;28;20217;-92
2021/07/14 03:40:03;;;;;;;15.60;9.07;;;25.10;99.90;;;;;;5035907;28;20236;-93
2021/07/14 03:42:35;;;;;;;14.10;7.47;;;24.90;99.90;;;;;;5036751;28;20220;-91
2021/07/14 03:45:08;;;;;;;10.47;6.03;;;24.40;99.90;;;;;;5037530;28;20301;-90
2021/07/14 03:47:43;;;;;;;8.37;5.70;;;24.00;99.90;;;;;;5036297;28;20713;-91
2021/07/14 03:50:16;;;;;;;8.37;5.87;;;23.90;99.90;;;;;;5035468;28;20251;-90
2021/07/14 03:52:48;;;;;;;7.23;5.93;;;23.80;99.90;;;;;;5036499;28;20731;-91
2021/07/14 03:55:22;;;;;;;8.67;5.30;;;23.60;99.90;;;;;;5034947;28;20215;-91
2021/07/14 03:57:55;;;;;;;8.73;5.37;;;23.60;99.90;;;;;;5018688;28;20324;-90
2021/07/14 04:00:27;;;;;;;11.13;5.47;;;23.50;99.90;;;;;;5035028;28;20402;-89
2021/07/14 04:03:02;;;;;;;8.97;6.37;;;23.50;99.90;;;;;;5039097;28;20271;-92
2021/07/14 04:05:33;;;;;;;9.20;6.50;;;23.30;99.90;;;;;;5038311;28;20299;-92
2021/07/14 04:08:05;;;;;;;7.57;5.70;;;23.10;99.90;;;;;;5039967;28;20213;-92
2021/07/14 04:10:37;;;;;;;7.70;6.13;;;23.00;99.90;;;;;;5044289;28;20239;-92
2021/07/14 04:13:09;;;;;;;8.60;6.73;;;23.00;99.90;;;;;;5055012;28;20201;-91
2021/07/14 04:15:40;;;;;;;7.53;6.40;;;22.80;99.90;;;;;;5055525;28;20200;-92
2021/07/14 04:18:15;;;;;;;12.17;5.43;;;22.70;99.90;;;;;;5045255;28;20209;-91
2021/07/14 04:20:46;;;;;;;12.40;6.33;;;22.70;99.90;;;;;;5050245;28;20287;-94
2021/07/14 04:23:18;;;;;;;9.60;6.23;;;22.60;99.90;;;;;;5056035;28;20315;-94
2021/07/14 04:25:49;;;;;;;7.23;6.20;;;22.50;99.90;;;;;;5019608;28;20295;-94
2021/07/14 04:28:21;;;;;;;9.30;6.07;;;22.40;99.90;;;;;;5035971;28;20235;-94
2021/07/14 04:30:52;;;;;;;8.53;6.10;;;22.40;99.90;;;;;;5038123;28;20241;-94
2021/07/14 04:33:26;;;;;;;7.80;6.07;;;22.30;99.90;;;;;;5035253;28;20205;-94
2021/07/14 04:35:57;;;;;;;7.67;6.03;;;22.20;99.90;;;;;;5035275;28;20296;-94
2021/07/14 04:38:28;;;;;;;8.03;5.83;;;22.10;99.90;;;;;;5035711;28;20302;-93
2021/07/14 04:40:59;;;;;;;8.93;6.27;;;22.10;99.90;;;;;;5035497;28;20224;-94
2021/07/14 04:43:31;;;;;;;9.30;6.37;;;22.00;99.90;;;;;;5035748;28;20241;-94
2021/07/14 04:46:02;;;;;;;10.13;5.73;;;22.00;99.90;;;;;;5034692;28;20201;-94
2021/07/14 04:48:35;;;;;;;10.67;6.73;;;21.90;99.90;;;;;;5036081;28;20212;-93
2021/07/14 04:51:07;;;;;;;7.80;6.10;;;21.80;99.90;;;;;;5035113;28;20240;-94
2021/07/14 04:53:38;;;;;;;7.90;5.17;;;21.80;99.90;;;;;;5016907;28;20677;-92
2021/07/14 04:56:16;;;;;;;7.40;5.63;;;21.70;99.90;;;;;;5040780;28;20291;-93
2021/07/14 04:58:48;;;;;;;7.17;5.80;;;21.60;99.90;;;;;;4692357;28;9999984;-94
2021/07/14 05:01:19;;;;;;;7.30;5.07;;;21.60;99.90;;;;;;5038305;28;20267;-93
2021/07/14 05:03:52;;;;;;;11.03;5.60;;;21.50;99.90;;;;;;5033360;28;20285;-94
2021/07/14 05:06:23;;;;;;;12.20;7.20;;;21.50;99.90;;;;;;5033140;28;20240;-93
2021/07/14 05:08:55;;;;;;;10.17;6.47;;;21.40;99.90;;;;;;5034130;28;20223;-93
2021/07/14 05:11:26;;;;;;;13.27;5.70;;;21.30;99.90;;;;;;5016094;28;20204;-92
2021/07/14 05:13:57;;;;;;;10.13;6.03;;;21.20;99.90;;;;;;5034359;28;20264;-94
2021/07/14 05:16:28;;;;;;;9.03;5.97;;;21.10;99.90;;;;;;5034412;28;20208;-93
2021/07/14 05:19:03;;;;;;;10.13;6.40;;;21.00;99.90;;;;;;5034546;28;20213;-94
2021/07/14 05:21:34;;;;;;;9.30;6.03;;;20.90;99.90;;;;;;5033971;28;20205;-94
2021/07/14 05:24:05;;;;;;;11.63;6.47;;;20.80;99.90;;;;;;5035581;28;20292;-93
2021/07/14 05:26:37;;;;;;;8.33;6.50;;;20.80;99.90;;;;;;5035623;28;20713;-95
2021/07/14 05:29:08;;;;;;;11.07;6.43;;;20.70;99.90;;;;;;5035810;28;20232;-96
2021/07/14 05:31:39;;;;;;;8.20;6.30;;;20.60;99.90;;;;;;5054023;28;20239;-95
2021/07/14 05:34:12;;;;;;;8.03;6.60;;;20.60;99.90;;;;;;5048395;28;20205;-94
2021/07/14 05:36:43;;;;;;;9.47;6.90;;;20.60;99.90;;;;;;5032448;28;20297;-95
2021/07/14 05:39:16;;;;;;;11.60;7.10;;;20.50;99.90;;;;;;5036543;28;20335;-95
2021/07/14 05:41:46;;;;;;;9.77;7.20;;;20.40;99.90;;;;;;5043282;28;20268;-95
2021/07/14 05:44:18;;;;;;;9.33;6.97;;;20.50;99.90;;;;;;5038575;28;20258;-95
2021/07/14 05:46:50;;;;;;;10.00;6.93;;;20.40;99.90;;;;;;5053545;28;20208;-95
2021/07/14 05:49:23;;;;;;;9.87;6.67;;;20.30;99.90;;;;;;5042834;28;20280;-95
2021/07/14 05:51:54;;;;;;;15.80;7.50;;;20.20;99.90;;;;;;5054968;28;20197;-93
2021/07/14 05:54:25;;;;;;;9.17;6.97;;;20.20;99.90;;;;;;5026834;28;20207;-96
2021/07/14 05:56:57;;;;;;;9.07;6.63;;;20.10;99.90;;;;;;5047545;28;20297;-93
2021/07/14 05:59:28;;;;;;;11.77;7.50;;;20.00;99.90;;;;;;5046871;28;20227;-93
2021/07/14 06:02:00;;;;;;;8.53;6.47;;;19.90;99.90;;;;;;5036506;28;20205;-92
2021/07/14 06:04:33;;;;;;;12.00;7.00;;;19.80;99.90;;;;;;5037013;28;20263;-95
2021/07/14 06:07:06;;;;;;;10.47;7.33;;;19.70;99.90;;;;;;5039993;28;20553;-93
2021/07/14 06:09:39;;;;;;;10.93;7.47;;;19.70;99.90;;;;;;5056305;28;20204;-94
2021/07/14 06:12:12;;;;;;;12.30;8.03;;;19.70;99.90;;;;;;5046060;28;20567;-93
2021/07/14 06:14:45;;;;;;;8.90;6.97;;;19.60;99.90;;;;;;5016210;28;20228;-92
2021/07/14 06:17:16;;;;;;;15.57;7.70;;;19.50;99.90;;;;;;5036026;28;20209;-93
2021/07/14 06:19:50;;;;;;;10.80;7.63;;;19.50;99.90;;;;;;5031731;28;20197;-94
2021/07/14 06:22:22;;;;;;;12.10;8.07;;;19.40;99.90;;;;;;5024311;28;20225;-94
2021/07/14 06:24:54;;;;;;;9.00;6.70;;;19.40;99.90;;;;;;5024075;28;20237;-93
2021/07/14 06:27:43;;;;;;;10.33;6.87;;;19.30;99.90;;;;;;5025966;28;20212;-93
2021/07/14 06:30:15;;;;;;;10.13;7.30;;;19.20;99.90;;;;;;5039896;28;20213;-93
2021/07/14 06:32:51;;;;;;;8.70;6.87;;;19.20;99.90;;;;;;5039856;28;20244;-94
2021/07/14 06:35:25;;;;;;;9.03;6.73;;;19.10;99.90;;;;;;5054092;28;20212;-94
2021/07/14 06:37:56;;;;;;;10.17;6.83;;;19.10;99.90;;;;;;5058444;28;20201;-95
2021/07/14 06:40:27;;;;;;;10.90;7.03;;;19.00;99.90;;;;;;5056427;28;20217;-94
2021/07/14 06:42:59;;;;;;;11.03;7.10;;;19.00;99.90;;;;;;5045106;28;20641;-95
2021/07/14 06:45:33;;;;;;;9.43;6.37;;;18.90;99.90;;;;;;5048458;28;20241;-94
2021/07/14 06:48:07;;;;;;;9.80;7.03;;;18.80;99.90;;;;;;5048195;28;20255;-94
2021/07/14 06:50:41;;;;;;;11.40;6.77;;;18.70;99.90;;;;;;5045508;28;20259;-94
2021/07/14 06:53:13;;;;;;;7.60;6.40;;;18.70;99.90;;;;;;5039399;28;20236;-93
2021/07/14 06:55:44;;;;;;;10.33;6.43;;;18.60;99.90;;;;;;5038527;28;20216;-93
2021/07/14 06:58:15;;;;;;;8.07;6.40;;;18.60;99.90;;;;;;5038227;28;20323;-93
2021/07/14 07:00:47;;;;;;;8.83;6.77;;;18.60;99.90;;;;;;5037561;28;20636;-94
2021/07/14 07:03:18;;;;;;;9.93;6.67;;;18.50;99.90;;;;;;5037485;28;20216;-93
2021/07/14 07:05:52;;;;;;;9.47;6.53;;;18.40;99.90;;;;;;5037238;28;20260;-94
2021/07/14 07:08:24;;;;;;;9.57;6.10;;;18.30;99.90;;;;;;5038470;28;20212;-93
2021/07/14 07:10:55;;;;;;;9.37;6.27;;;18.30;99.90;;;;;;5036251;28;20236;-92
2021/07/14 07:13:26;;;;;;;11.60;6.27;;;18.20;99.90;;;;;;5037323;28;20244;-92
2021/07/14 07:15:58;;;;;;;9.97;6.67;;;18.20;99.90;;;;;;5036169;28;20237;-92
2021/07/14 07:18:30;;;;;;;10.67;6.40;;;18.10;99.90;;;;;;5037010;28;20209;-93
2021/07/14 07:21:07;;;;;;;9.57;6.70;;;18.10;99.90;;;;;;5035758;28;20252;-94
2021/07/14 07:23:38;;;;;;;11.93;6.00;;;18.00;99.90;;;;;;5037074;28;20228;-94
2021/07/14 07:26:10;;;;;;;8.80;6.40;;;18.00;99.90;;;;;;5019372;28;20264;-92
2021/07/14 07:28:42;;;;;;;9.57;6.37;;;17.90;99.90;;;;;;5036596;28;20208;-95
2021/07/14 07:31:14;;;;;;;8.93;5.93;;;17.90;99.90;;;;;;5035987;28;20209;-95
2021/07/14 07:33:45;;;;;;;8.53;5.53;;;17.80;99.90;;;;;;5037048;28;20259;-95
2021/07/14 07:36:17;;;;;;;10.63;6.60;;;17.70;99.90;;;;;;5036970;28;20228;-95
2021/07/14 07:38:48;;;;;;;8.10;6.00;;;17.70;99.90;;;;;;5037444;28;20627;-94
2021/07/14 07:41:21;;;;;;;8.07;6.07;;;17.70;99.90;;;;;;5037357;28;20621;-94
2021/07/14 07:43:52;;;;;;;9.63;5.63;;;17.70;99.90;;;;;;5038797;28;20292;-94
2021/07/14 07:46:24;;;;;;;9.17;5.97;;;17.60;99.90;;;;;;5036378;28;20228;-95
2021/07/14 07:48:55;;;;;;;8.57;5.57;;;17.60;99.90;;;;;;5036183;28;20300;-94
2021/07/14 07:51:28;;;;;;;8.47;6.17;;;17.50;99.90;;;;;;5036096;28;20220;-95
2021/07/14 07:53:59;;;;;;;9.73;6.70;;;17.50;99.90;;;;;;5036475;28;20632;-94
2021/07/14 07:56:31;;;;;;;9.90;6.03;;;17.50;99.90;;;;;;5035977;28;20576;-93
2021/07/14 07:59:02;;;;;;;9.43;5.90;;;17.40;99.90;;;;;;5036645;28;20209;-93
2021/07/14 08:01:38;;;;;;;7.07;5.90;;;17.40;99.90;;;;;;5035305;28;20205;-93
2021/07/14 08:04:09;;;;;;;8.90;5.20;;;17.40;99.90;;;;;;5036454;28;20239;-93
2021/07/14 08:06:42;;;;;;;8.57;5.97;;;17.40;99.90;;;;;;5036484;28;20243;-93
2021/07/14 08:09:13;;;;;;;7.53;5.53;;;17.40;99.90;;;;;;5036257;28;20206;-93
2021/07/14 08:11:45;;;;;;;7.90;5.70;;;17.40;99.90;;;;;;5035492;28;20232;-93
2021/07/14 08:14:16;;;;;;;10.40;6.17;;;17.30;99.90;;;;;;5037038;28;20220;-94
2021/07/14 08:16:49;;;;;;;7.57;5.93;;;17.30;99.90;;;;;;5038567;28;20201;-93
2021/07/14 08:19:22;;;;;;;8.23;6.00;;;17.20;99.90;;;;;;5038917;28;20216;-93
2021/07/14 08:21:55;;;;;;;8.63;5.97;;;17.20;99.90;;;;;;5038665;28;20573;-94
2021/07/14 08:24:26;;;;;;;9.73;5.80;;;17.10;99.90;;;;;;5039287;28;20198;-94
2021/07/14 08:27:02;;;;;;;8.07;5.57;;;17.10;99.90;;;;;;5053478;28;20221;-94
2021/07/14 08:29:39;;;;;;;8.70;5.97;;;17.10;99.90;;;;;;5059796;28;20208;-94
2021/07/14 08:32:11;;;;;;;7.77;5.60;;;17.00;99.90;;;;;;5076409;28;20208;-94
2021/07/14 08:34:42;;;;;;;8.63;5.73;;;17.00;99.90;;;;;;5076761;28;20255;-94
2021/07/14 08:37:15;;;;;;;8.53;5.70;;;17.00;99.90;;;;;;5076211;28;20197;-94
2021/07/14 08:39:46;;;;;;;8.30;5.60;;;16.90;99.90;;;;;;5066504;28;20273;-94
2021/07/14 08:42:20;;;;;;;10.57;5.53;;;16.90;99.90;;;;;;5055094;28;20295;-94
2021/07/14 08:44:52;;;;;;;8.83;5.20;;;16.80;99.90;;;;;;5055357;28;20676;-94
2021/07/14 08:47:23;;;;;;;7.10;5.23;;;16.70;99.90;;;;;;5055291;28;20224;-95
2021/07/14 08:49:54;;;;;;;10.53;5.87;;;16.70;99.90;;;;;;5055989;28;20684;-94
2021/07/14 08:52:27;;;;;;;6.73;4.97;;;16.70;99.90;;;;;;5055803;28;20223;-94
2021/07/14 08:54:58;;;;;;;7.87;5.27;;;16.70;99.90;;;;;;5055887;28;20205;-94
2021/07/14 08:57:29;;;;;;;8.43;5.40;;;16.60;99.90;;;;;;5073665;28;20216;-95
2021/07/14 09:00:00;;;;;;;9.60;5.50;;;16.50;99.90;;;;;;5068466;28;20196;-96
2021/07/14 09:02:32;;;;;;;9.13;6.03;;;16.50;99.90;;;;;;5054775;28;20889;-93
2021/07/14 09:05:03;;;;;;;7.10;5.47;;;16.40;99.90;;;;;;5041404;28;20237;-92
2021/07/14 09:07:36;;;;;;;9.70;5.93;;;16.40;99.90;;;;;;5038290;28;20185;-93
2021/07/14 09:10:09;;;;;;;8.70;5.97;;;16.40;99.90;;;;;;5035549;28;20277;-93
2021/07/14 09:12:42;;;;;;;7.97;5.37;;;16.30;99.90;;;;;;5018243;28;20240;-93
2021/07/14 09:15:15;;;;;;;7.00;5.00;;;16.30;99.90;;;;;;5021428;28;20216;-94
2021/07/14 09:17:48;;;;;;;10.40;6.50;;;16.30;99.90;;;;;;5029612;28;20640;-94
2021/07/14 09:20:24;;;;;;;9.20;6.37;;;16.20;99.90;;;;;;5033844;28;20710;-93
2021/07/14 09:23:08;;;;;;;10.30;6.07;;;16.10;99.90;;;;;;5035088;28;20266;-94
2021/07/14 09:25:44;;;;;;;8.73;5.90;;;16.00;99.90;;;;;;5034668;28;20224;-93
2021/07/14 09:28:17;;;;;;;9.03;6.03;;;16.00;99.90;;;;;;5034738;28;20231;-93
2021/07/14 09:30:57;;;;;;;7.17;5.77;;;16.00;99.90;;;;;;5016313;28;20271;-96
2021/07/14 09:33:29;;;;;;;7.90;5.53;;;15.90;99.90;;;;;;5035043;28;20220;-94
2021/07/14 09:36:00;;;;;;;7.67;5.87;;;15.90;99.90;;;;;;5034917;28;20235;-94
2021/07/14 09:38:37;;;;;;;9.63;6.53;;;15.90;99.90;;;;;;5036873;28;20284;-94
2021/07/14 09:41:10;;;;;;;8.27;5.70;;;15.80;99.90;;;;;;5039816;28;20259;-95
2021/07/14 09:43:43;;;;;;;8.97;6.10;;;15.80;99.90;;;;;;5038433;28;20698;-95
2021/07/14 09:46:16;;;;;;;8.00;5.90;;;15.60;99.90;;;;;;5038697;28;20614;-95
2021/07/14 09:48:49;;;;;;;8.73;6.03;;;15.60;99.90;;;;;;5038546;28;20263;-92
2021/07/14 09:51:21;;;;;;;11.47;6.43;;;15.50;99.90;;;;;;5037452;28;20235;-94
2021/07/14 09:53:57;;;;;;;9.00;6.17;;;15.40;99.90;;;;;;5020713;28;20235;-96
2021/07/14 09:56:33;;;;;;;9.10;6.03;;;15.40;99.90;;;;;;5021256;28;20212;-95
2021/07/14 09:59:06;;;;;;;9.30;5.57;;;15.50;99.90;;;;;;5038094;28;20216;-95
2021/07/14 10:01:42;;;;;;;8.53;5.63;;;15.40;99.90;;;;;;5037588;28;20720;-94
2021/07/14 10:04:15;;;;;;;8.33;5.50;;;15.40;99.90;;;;;;5037842;28;20205;-94
2021/07/14 10:07:06;;;;;;;9.73;5.63;;;15.30;99.90;;;;;;5038063;28;20232;-94
2021/07/14 10:09:40;;;;;;;7.83;5.60;;;15.30;99.90;;;;;;5037845;28;20236;-94
2021/07/14 10:12:32;;;;;;;7.33;5.23;;;15.20;99.90;;;;;;5036845;28;20222;-94
2021/07/14 10:15:21;;;;;;;7.00;5.47;;;15.10;99.90;;;;;;5037918;28;20205;-94
2021/07/14 10:17:53;;;;;;;8.00;5.70;;;15.10;99.90;;;;;;5029446;28;20757;-93
2021/07/14 10:20:31;;;;;;;11.77;6.17;;;15.10;99.90;;;;;;5000624;28;20221;-94
2021/07/14 10:23:04;;;;;;;9.63;5.50;;;15.00;99.90;;;;;;5018371;28;20236;-93
2021/07/14 10:25:38;;;;;;;7.83;5.47;;;15.00;99.90;;;;;;5034204;28;20375;-94
2021/07/14 10:28:12;;;;;;;10.20;5.63;;;15.10;99.90;;;;;;5039480;28;20209;-93
2021/07/14 10:30:44;;;;;;;7.40;5.40;;;15.10;99.90;;;;;;5037180;28;20212;-94
2021/07/14 10:33:19;;;;;;;8.80;5.80;;;15.10;99.90;;;;;;5037560;28;20217;-94
2021/07/14 10:35:53;;;;;;;9.13;6.03;;;15.10;99.90;;;;;;5037749;28;20220;-95
2021/07/14 10:38:27;;;;;;;8.03;5.70;;;15.10;99.90;;;;;;5037799;28;20264;-94
2021/07/14 10:41:06;;;;;;;10.27;5.90;;;15.00;99.90;;;;;;5036271;28;20212;-95
2021/07/14 10:43:38;;;;;;;9.90;5.80;;;14.90;99.90;;;;;;5038524;28;20209;-95
2021/07/14 10:46:26;;;;;;;8.57;6.00;;;14.70;99.90;;;;;;5022882;28;20701;-94
2021/07/14 10:48:59;;;;;;;8.07;5.93;;;14.70;99.90;;;;;;5037542;28;20221;-96
2021/07/14 10:51:32;;;;;;;8.80;5.70;;;14.70;99.90;;;;;;5038010;28;20267;-95
2021/07/14 10:54:05;;;;;;;8.20;6.00;;;14.70;99.90;;;;;;5038032;28;20255;-94
2021/07/14 10:56:43;;;;;;;8.43;5.70;;;14.70;99.90;;;;;;5037589;28;20268;-95
2021/07/14 10:59:15;;;;;;;8.57;6.10;;;14.70;99.90;;;;;;5037899;28;20240;-94
2021/07/14 11:01:49;;;;;;;11.30;6.03;;;14.70;99.90;;;;;;5037016;28;20621;-93
2021/07/14 11:04:52;;;;;;;6.47;5.40;;;14.70;99.90;;;;;;5037758;28;20227;-95
2021/07/14 11:07:39;;;;;;;8.13;5.87;;;14.70;99.90;;;;;;5037771;28;20282;-94
2021/07/14 11:10:34;;;;;;;8.53;5.80;;;14.70;99.90;;;;;;5036756;28;20236;-92
2021/07/14 11:13:29;;;;;;;7.63;5.40;;;14.60;99.90;;;;;;5038034;28;20613;-92
2021/07/14 11:16:24;;;;;;;6.57;5.23;;;14.60;99.90;;;;;;5039010;28;20241;-93
2021/07/14 11:19:03;;;;;;;11.40;5.40;;;14.60;99.90;;;;;;5058286;28;20219;-93
2021/07/14 11:21:53;;;;;;;8.30;5.67;;;14.60;99.90;;;;;;5040525;28;20201;-92
2021/07/14 11:24:55;;;;;;;7.57;5.70;;;14.60;99.90;;;;;;5045557;28;20228;-92
2021/07/14 11:28:00;;;;;;;8.00;5.37;;;14.60;99.90;;;;;;5040284;28;20324;-92
2021/07/14 11:30:41;;;;;;;7.93;5.93;;;14.60;99.90;;;;;;5039237;28;20629;-92
2021/07/14 11:33:20;;;;;;;6.00;5.40;;;14.60;99.90;;;;;;5041715;28;20209;-92
2021/07/14 11:35:56;;;;;;;6.10;5.20;;;14.50;99.90;;;;;;5023400;28;20224;-94
2021/07/14 11:38:31;;;;;;;5.63;5.00;;;14.50;99.90;;;;;;5042409;28;20217;-93
2021/07/14 11:41:04;;;;;;;7.90;5.17;;;14.50;99.90;;;;;;5039063;28;20235;-95
2021/07/14 11:43:44;;;;;;;7.23;5.60;;;14.50;99.90;;;;;;5036964;28;20209;-95
2021/07/14 11:46:20;;;;;;;8.43;5.60;;;14.40;99.90;;;;;;5037110;28;20232;-94
2021/07/14 11:49:02;;;;;;;7.53;5.50;;;14.30;99.90;;;;;;5037170;28;20216;-94
2021/07/14 11:51:38;;;;;;;9.70;6.37;;;14.30;99.90;;;;;;5036010;28;20227;-94
2021/07/14 11:54:23;;;;;;;8.47;5.90;;;14.30;99.90;;;;;;5037463;28;20208;-94
2021/07/14 11:56:55;;;;;;;7.97;5.47;;;14.30;99.90;;;;;;5036638;28;20287;-95
2021/07/14 11:59:29;;;;;;;6.63;5.50;;;14.30;99.90;;;;;;5019345;28;20232;-94
2021/07/14 12:02:22;;;;;;;8.37;5.50;;;14.30;99.90;;;;;;5035036;28;20185;-94
2021/07/14 12:05:08;;;;;;;6.50;4.90;;;14.30;99.90;;;;;;5035925;28;20600;-94
2021/07/14 12:07:44;;;;;;;9.43;5.27;;;14.20;99.90;;;;;;5036475;28;20756;-92
2021/07/14 12:10:19;;;;;;;7.33;4.60;;;14.20;99.90;;;;;;5035162;28;20969;-93
2021/07/14 12:12:50;;;;;;;7.87;4.77;;;14.10;99.90;;;;;;5029343;28;20296;-93
2021/07/14 12:15:22;;;;;;;6.03;4.37;;;14.20;99.90;;;;;;5016685;28;20209;-94
2021/07/14 12:17:55;;;;;;;7.23;4.53;;;14.10;99.90;;;;;;5033568;28;20220;-94
2021/07/14 12:20:26;;;;;;;8.67;4.53;;;14.10;99.90;;;;;;5035837;28;20205;-93
2021/07/14 12:22:57;;;;;;;6.93;4.50;;;13.90;99.90;;;;;;5035910;28;20276;-93
2021/07/14 12:25:28;;;;;;;6.47;5.23;;;13.80;99.90;;;;;;5035535;28;20307;-93
2021/07/14 12:27:59;;;;;;;6.80;5.10;;;13.80;99.90;;;;;;5035919;28;20255;-94
2021/07/14 12:30:33;;;;;;;7.17;4.77;;;13.90;99.90;;;;;;5017957;28;20209;-94
2021/07/14 12:33:06;;;;;;;8.00;4.80;;;13.90;99.90;;;;;;5035654;28;20270;-93
2021/07/14 12:35:40;;;;;;;8.67;5.23;;;13.90;99.90;;;;;;5035657;28;20296;-95
2021/07/14 12:38:15;;;;;;;6.90;5.17;;;13.90;99.90;;;;;;5036253;28;20262;-94
2021/07/14 12:40:48;;;;;;;7.93;5.07;;;13.80;99.90;;;;;;5017833;28;20793;-94
2021/07/14 12:43:20;;;;;;;6.47;4.70;;;13.90;99.90;;;;;;5035824;28;20217;-94
2021/07/14 12:45:53;;;;;;;6.73;4.50;;;13.90;99.90;;;;;;5035713;28;20268;-94
2021/07/14 12:48:28;;;;;;;7.67;5.20;;;13.90;99.90;;;;;;5039471;28;20232;-94
2021/07/14 12:51:00;;;;;;;7.13;4.70;;;14.00;99.90;;;;;;5044706;28;20216;-95
2021/07/14 12:53:31;;;;;;;8.00;4.70;;;14.00;99.90;;;;;;5337839;22;20241;-96
2021/07/14 12:56:02;;;;;;;8.20;5.30;;;14.10;99.90;;;;;;5016155;28;20200;-96
2021/07/14 12:58:34;;;;;;;7.77;4.67;;;14.20;99.90;;;;;;5015078;28;20236;-95
2021/07/14 13:01:06;;;;;;;8.97;5.17;;;14.30;99.90;;;;;;5015128;28;20218;-94
2021/07/14 13:03:41;;;;;;;8.53;4.90;;;14.30;99.90;;;;;;5013853;28;20225;-95
2021/07/14 13:06:12;;;;;;;10.17;6.23;;;14.50;99.90;;;;;;4997311;28;20305;-91
2021/07/14 13:08:44;;;;;;;8.67;6.23;;;14.60;99.90;;;;;;4996129;28;20632;-94
2021/07/14 13:11:16;;;;;;;12.80;7.70;;;14.70;99.90;;;;;;4995163;28;20559;-94
2021/07/14 13:13:49;;;;;;;13.27;6.90;;;14.80;99.90;;;;;;4995407;28;20297;-94
2021/07/14 13:16:28;;;;;;;14.60;8.10;;;14.90;99.90;;;;;;4996253;28;20294;-94
2021/07/14 13:19:02;;;;;;;13.60;8.37;;;15.10;99.90;;;;;;4996068;28;20244;-94
2021/07/14 13:21:33;;;;;;;10.07;6.73;;;15.30;99.90;;;;;;4995439;28;20231;-95
2021/07/14 13:24:07;;;;;;;12.33;7.97;;;15.30;99.90;;;;;;4996139;28;20214;-94
2021/07/14 13:26:39;;;;;;;13.03;9.30;;;15.50;99.90;;;;;;4996667;28;20273;-95
2021/07/14 13:29:10;;;;;;;10.27;7.80;;;15.30;99.90;;;;;;4996165;28;20401;-94